sensor_id;sensor_type;location;lat;lon;timestamp;P1;durP1;ratioP1;P2;durP2;ratioP2
31378;SDS011;61664;48.112;11.662;2023-02-01T00:01:54;3.10;;;2.70;;
31378;SDS011;61664;48.112;11.662;2023-02-01T00:04:22;2.72;;;2.50;;
31378;SDS011;61664;48.112;11.662;2023-02-01T00:06:49;2.83;;;2.28;;
31378;SDS011;61664;48.112;11.662;2023-02-01T00:09:17;2.33;;;2.13;;
31378;SDS011;61664;48.112;11.662;2023-02-01T00:11:45;2.65;;;2.45;;
31378;SDS011;61664;48.112;11.662;2023-02-01T00:14:12;4.10;;;2.45;;
31378;SDS011;61664;48.112;11.662;2023-02-01T00:16:57;3.55;;;2.25;;
31378;SDS011;61664;48.112;11.662;2023-02-01T00:19:24;3.13;;;2.40;;
31378;SDS011;61664;48.112;11.662;2023-02-01T00:21:51;2.65;;;2.45;;
31378;SDS011;61664;48.112;11.662;2023-02-01T00:24:18;4.78;;;2.42;;
31378;SDS011;61664;48.112;11.662;2023-02-01T00:26:45;2.13;;;1.92;;
31378;SDS011;61664;48.112;11.662;2023-02-01T00:29:13;4.10;;;3.10;;
31378;SDS011;61664;48.112;11.662;2023-02-01T00:31:46;2.70;;;2.47;;
31378;SDS011;61664;48.112;11.662;2023-02-01T00:34:16;2.13;;;1.98;;
31378;SDS011;61664;48.112;11.662;2023-02-01T00:36:45;1.97;;;1.77;;
31378;SDS011;61664;48.112;11.662;2023-02-01T00:39:13;2.05;;;1.95;;
31378;SDS011;61664;48.112;11.662;2023-02-01T00:41:40;2.65;;;2.45;;
31378;SDS011;61664;48.112;11.662;2023-02-01T00:44:07;2.15;;;2.00;;
31378;SDS011;61664;48.112;11.662;2023-02-01T00:46:34;2.00;;;1.80;;
31378;SDS011;61664;48.112;11.662;2023-02-01T00:49:01;2.20;;;2.00;;
31378;SDS011;61664;48.112;11.662;2023-02-01T00:51:29;3.33;;;1.83;;
31378;SDS011;61664;48.112;11.662;2023-02-01T00:53:56;2.92;;;2.25;;
31378;SDS011;61664;48.112;11.662;2023-02-01T00:56:23;2.55;;;2.35;;
31378;SDS011;61664;48.112;11.662;2023-02-01T00:58:50;2.28;;;2.13;;
31378;SDS011;61664;48.112;11.662;2023-02-01T01:01:25;2.30;;;2.10;;
31378;SDS011;61664;48.112;11.662;2023-02-01T01:03:54;3.15;;;1.90;;
31378;SDS011;61664;48.112;11.662;2023-02-01T01:06:26;4.30;;;3.20;;
31378;SDS011;61664;48.112;11.662;2023-02-01T01:08:58;7.05;;;2.40;;
31378;SDS011;61664;48.112;11.662;2023-02-01T01:11:28;3.75;;;2.53;;
31378;SDS011;61664;48.112;11.662;2023-02-01T01:14:01;2.63;;;1.95;;
31378;SDS011;61664;48.112;11.662;2023-02-01T01:16:30;1.90;;;1.80;;
31378;SDS011;61664;48.112;11.662;2023-02-01T01:19:12;3.50;;;2.90;;
31378;SDS011;61664;48.112;11.662;2023-02-01T01:21:39;3.17;;;2.70;;
31378;SDS011;61664;48.112;11.662;2023-02-01T01:24:06;2.35;;;2.00;;
31378;SDS011;61664;48.112;11.662;2023-02-01T01:26:33;2.72;;;2.53;;
31378;SDS011;61664;48.112;11.662;2023-02-01T01:29:00;2.85;;;2.65;;
31378;SDS011;61664;48.112;11.662;2023-02-01T01:31:27;3.28;;;2.97;;
31378;SDS011;61664;48.112;11.662;2023-02-01T01:33:57;3.30;;;2.97;;
31378;SDS011;61664;48.112;11.662;2023-02-01T01:36:26;2.65;;;2.45;;
31378;SDS011;61664;48.112;11.662;2023-02-01T01:38:57;5.85;;;2.80;;
31378;SDS011;61664;48.112;11.662;2023-02-01T01:41:32;3.58;;;2.85;;
31378;SDS011;61664;48.112;11.662;2023-02-01T01:47:45;3.10;;;2.88;;
31378;SDS011;61664;48.112;11.662;2023-02-01T01:50:48;2.92;;;2.63;;
31378;SDS011;61664;48.112;11.662;2023-02-01T01:53:45;4.00;;;3.60;;
31378;SDS011;61664;48.112;11.662;2023-02-01T01:56:24;4.07;;;3.60;;
31378;SDS011;61664;48.112;11.662;2023-02-01T01:58:56;4.93;;;4.00;;
31378;SDS011;61664;48.112;11.662;2023-02-01T02:01:23;3.85;;;3.38;;
31378;SDS011;61664;48.112;11.662;2023-02-01T02:03:50;4.22;;;3.80;;
31378;SDS011;61664;48.112;11.662;2023-02-01T02:09:14;4.28;;;3.70;;
31378;SDS011;61664;48.112;11.662;2023-02-01T02:11:42;3.85;;;3.55;;
31378;SDS011;61664;48.112;11.662;2023-02-01T02:14:15;4.55;;;3.72;;
31378;SDS011;61664;48.112;11.662;2023-02-01T02:36:15;5.97;;;3.72;;
31378;SDS011;61664;48.112;11.662;2023-02-01T02:41:45;4.35;;;3.90;;
31378;SDS011;61664;48.112;11.662;2023-02-01T02:44:56;4.22;;;3.80;;
31378;SDS011;61664;48.112;11.662;2023-02-01T02:50:34;4.30;;;3.90;;
31378;SDS011;61664;48.112;11.662;2023-02-01T02:53:28;4.15;;;3.78;;
31378;SDS011;61664;48.112;11.662;2023-02-01T02:56:23;4.45;;;4.05;;
31378;SDS011;61664;48.112;11.662;2023-02-01T02:59:12;4.05;;;3.70;;
31378;SDS011;61664;48.112;11.662;2023-02-01T03:02:02;4.85;;;4.40;;
31378;SDS011;61664;48.112;11.662;2023-02-01T03:04:51;4.43;;;3.97;;
31378;SDS011;61664;48.112;11.662;2023-02-01T03:10:13;4.40;;;4.00;;
31378;SDS011;61664;48.112;11.662;2023-02-01T03:13:00;4.40;;;3.95;;
31378;SDS011;61664;48.112;11.662;2023-02-01T03:21:48;4.25;;;3.50;;
31378;SDS011;61664;48.112;11.662;2023-02-01T03:27:27;3.45;;;3.20;;
31378;SDS011;61664;48.112;11.662;2023-02-01T03:30:11;2.80;;;2.60;;
31378;SDS011;61664;48.112;11.662;2023-02-01T03:32:54;4.50;;;3.08;;
31378;SDS011;61664;48.112;11.662;2023-02-01T03:38:30;4.60;;;3.50;;
31378;SDS011;61664;48.112;11.662;2023-02-01T03:46:52;5.07;;;3.50;;
31378;SDS011;61664;48.112;11.662;2023-02-01T03:49:47;3.72;;;3.15;;
31378;SDS011;61664;48.112;11.662;2023-02-01T03:52:25;3.15;;;2.85;;
31378;SDS011;61664;48.112;11.662;2023-02-01T03:55:15;3.40;;;3.10;;
31378;SDS011;61664;48.112;11.662;2023-02-01T03:57:51;3.45;;;3.15;;
31378;SDS011;61664;48.112;11.662;2023-02-01T04:00:29;3.65;;;3.35;;
31378;SDS011;61664;48.112;11.662;2023-02-01T04:03:24;6.10;;;3.17;;
31378;SDS011;61664;48.112;11.662;2023-02-01T04:05:53;3.38;;;3.08;;
31378;SDS011;61664;48.112;11.662;2023-02-01T04:08:21;2.83;;;2.63;;
31378;SDS011;61664;48.112;11.662;2023-02-01T04:10:49;3.50;;;3.20;;
31378;SDS011;61664;48.112;11.662;2023-02-01T04:13:16;3.95;;;3.42;;
31378;SDS011;61664;48.112;11.662;2023-02-01T04:15:43;3.42;;;3.08;;
31378;SDS011;61664;48.112;11.662;2023-02-01T04:18:11;2.67;;;2.47;;
31378;SDS011;61664;48.112;11.662;2023-02-01T04:20:38;3.30;;;3.00;;
31378;SDS011;61664;48.112;11.662;2023-02-01T04:23:05;4.88;;;3.60;;
31378;SDS011;61664;48.112;11.662;2023-02-01T04:25:32;3.67;;;3.20;;
31378;SDS011;61664;48.112;11.662;2023-02-01T04:27:59;4.05;;;3.70;;
31378;SDS011;61664;48.112;11.662;2023-02-01T04:30:25;3.50;;;3.20;;
31378;SDS011;61664;48.112;11.662;2023-02-01T04:32:52;3.22;;;2.95;;
31378;SDS011;61664;48.112;11.662;2023-02-01T04:35:19;3.80;;;3.50;;
31378;SDS011;61664;48.112;11.662;2023-02-01T04:37:46;3.80;;;3.50;;
31378;SDS011;61664;48.112;11.662;2023-02-01T04:40:13;4.63;;;3.70;;
31378;SDS011;61664;48.112;11.662;2023-02-01T04:43:05;4.57;;;3.72;;
31378;SDS011;61664;48.112;11.662;2023-02-01T04:46:02;3.75;;;3.28;;
31378;SDS011;61664;48.112;11.662;2023-02-01T04:49:27;3.58;;;3.28;;
31378;SDS011;61664;48.112;11.662;2023-02-01T04:51:54;4.13;;;3.30;;
31378;SDS011;61664;48.112;11.662;2023-02-01T04:54:21;8.05;;;3.47;;
31378;SDS011;61664;48.112;11.662;2023-02-01T04:56:48;3.80;;;3.50;;
31378;SDS011;61664;48.112;11.662;2023-02-01T04:59:15;3.75;;;3.30;;
31378;SDS011;61664;48.112;11.662;2023-02-01T05:01:42;3.97;;;3.60;;
31378;SDS011;61664;48.112;11.662;2023-02-01T05:04:08;3.85;;;3.53;;
31378;SDS011;61664;48.112;11.662;2023-02-01T05:06:35;3.92;;;3.53;;
31378;SDS011;61664;48.112;11.662;2023-02-01T05:09:02;3.35;;;3.10;;
31378;SDS011;61664;48.112;11.662;2023-02-01T05:11:29;5.05;;;3.50;;
31378;SDS011;61664;48.112;11.662;2023-02-01T05:14:14;4.80;;;3.92;;
31378;SDS011;61664;48.112;11.662;2023-02-01T05:16:41;4.60;;;4.20;;
31378;SDS011;61664;48.112;11.662;2023-02-01T05:19:08;5.25;;;4.22;;
31378;SDS011;61664;48.112;11.662;2023-02-01T05:21:35;4.15;;;3.75;;
31378;SDS011;61664;48.112;11.662;2023-02-01T05:24:02;4.93;;;4.18;;
31378;SDS011;61664;48.112;11.662;2023-02-01T05:26:47;4.90;;;4.40;;
31378;SDS011;61664;48.112;11.662;2023-02-01T05:29:16;5.47;;;3.60;;
31378;SDS011;61664;48.112;11.662;2023-02-01T05:31:44;4.65;;;4.05;;
31378;SDS011;61664;48.112;11.662;2023-02-01T05:34:12;4.75;;;4.32;;
31378;SDS011;61664;48.112;11.662;2023-02-01T05:36:39;5.00;;;4.50;;
31378;SDS011;61664;48.112;11.662;2023-02-01T05:39:06;4.72;;;4.10;;
31378;SDS011;61664;48.112;11.662;2023-02-01T05:41:33;4.38;;;3.95;;
31378;SDS011;61664;48.112;11.662;2023-02-01T05:44:01;3.95;;;3.65;;
31378;SDS011;61664;48.112;11.662;2023-02-01T05:46:28;4.40;;;4.00;;
31378;SDS011;61664;48.112;11.662;2023-02-01T05:48:55;5.10;;;4.28;;
31378;SDS011;61664;48.112;11.662;2023-02-01T05:51:22;4.28;;;3.90;;
31378;SDS011;61664;48.112;11.662;2023-02-01T05:53:49;4.97;;;4.30;;
31378;SDS011;61664;48.112;11.662;2023-02-01T05:56:16;4.60;;;4.20;;
31378;SDS011;61664;48.112;11.662;2023-02-01T05:58:43;5.57;;;4.95;;
31378;SDS011;61664;48.112;11.662;2023-02-01T06:01:10;4.25;;;3.90;;
31378;SDS011;61664;48.112;11.662;2023-02-01T06:03:37;4.63;;;4.22;;
31378;SDS011;61664;48.112;11.662;2023-02-01T06:06:04;5.10;;;4.25;;
31378;SDS011;61664;48.112;11.662;2023-02-01T06:08:32;5.40;;;4.90;;
31378;SDS011;61664;48.112;11.662;2023-02-01T06:11:00;4.72;;;4.28;;
31378;SDS011;61664;48.112;11.662;2023-02-01T06:16:00;4.80;;;3.90;;
31378;SDS011;61664;48.112;11.662;2023-02-01T06:18:29;4.90;;;4.40;;
31378;SDS011;61664;48.112;11.662;2023-02-01T06:20:57;5.18;;;4.68;;
31378;SDS011;61664;48.112;11.662;2023-02-01T06:23:27;4.05;;;3.75;;
31378;SDS011;61664;48.112;11.662;2023-02-01T06:26:02;4.05;;;3.65;;
31378;SDS011;61664;48.112;11.662;2023-02-01T06:28:32;4.40;;;4.05;;
31378;SDS011;61664;48.112;11.662;2023-02-01T06:31:04;8.48;;;4.38;;
31378;SDS011;61664;48.112;11.662;2023-02-01T06:33:33;4.78;;;4.38;;
31378;SDS011;61664;48.112;11.662;2023-02-01T06:36:01;5.07;;;3.92;;
31378;SDS011;61664;48.112;11.662;2023-02-01T06:38:32;4.32;;;4.00;;
31378;SDS011;61664;48.112;11.662;2023-02-01T06:41:01;4.63;;;4.15;;
31378;SDS011;61664;48.112;11.662;2023-02-01T06:43:29;5.97;;;4.50;;
31378;SDS011;61664;48.112;11.662;2023-02-01T06:45:59;4.68;;;3.97;;
31378;SDS011;61664;48.112;11.662;2023-02-01T06:48:28;4.10;;;3.72;;
31378;SDS011;61664;48.112;11.662;2023-02-01T06:50:55;4.15;;;3.78;;
31378;SDS011;61664;48.112;11.662;2023-02-01T06:53:22;4.05;;;3.75;;
31378;SDS011;61664;48.112;11.662;2023-02-01T06:55:59;4.97;;;4.05;;
31378;SDS011;61664;48.112;11.662;2023-02-01T06:58:30;5.00;;;4.20;;
31378;SDS011;61664;48.112;11.662;2023-02-01T07:01:05;3.97;;;3.60;;
31378;SDS011;61664;48.112;11.662;2023-02-01T07:03:34;3.30;;;3.10;;
31378;SDS011;61664;48.112;11.662;2023-02-01T07:06:02;3.35;;;3.10;;
31378;SDS011;61664;48.112;11.662;2023-02-01T07:08:31;3.38;;;3.13;;
31378;SDS011;61664;48.112;11.662;2023-02-01T07:11:03;3.88;;;3.53;;
31378;SDS011;61664;48.112;11.662;2023-02-01T07:13:36;3.78;;;3.40;;
31378;SDS011;61664;48.112;11.662;2023-02-01T07:16:05;3.55;;;3.25;;
31378;SDS011;61664;48.112;11.662;2023-02-01T07:18:36;5.72;;;3.65;;
31378;SDS011;61664;48.112;11.662;2023-02-01T07:21:03;3.83;;;3.53;;
31378;SDS011;61664;48.112;11.662;2023-02-01T07:23:31;4.18;;;3.80;;
31378;SDS011;61664;48.112;11.662;2023-02-01T07:25:58;3.20;;;2.90;;
31378;SDS011;61664;48.112;11.662;2023-02-01T07:28:30;4.70;;;3.05;;
31378;SDS011;61664;48.112;11.662;2023-02-01T07:31:03;3.92;;;3.05;;
31378;SDS011;61664;48.112;11.662;2023-02-01T07:33:35;3.20;;;2.90;;
31378;SDS011;61664;48.112;11.662;2023-02-01T07:36:04;3.20;;;2.90;;
31378;SDS011;61664;48.112;11.662;2023-02-01T07:38:33;2.65;;;2.45;;
31378;SDS011;61664;48.112;11.662;2023-02-01T07:41:01;3.75;;;3.30;;
31378;SDS011;61664;48.112;11.662;2023-02-01T07:43:30;4.20;;;3.00;;
31378;SDS011;61664;48.112;11.662;2023-02-01T07:45:59;3.15;;;2.88;;
31378;SDS011;61664;48.112;11.662;2023-02-01T07:48:27;2.97;;;2.63;;
31378;SDS011;61664;48.112;11.662;2023-02-01T07:53:26;2.58;;;2.38;;
31378;SDS011;61664;48.112;11.662;2023-02-01T07:55:55;2.35;;;2.20;;
31378;SDS011;61664;48.112;11.662;2023-02-01T07:58:23;3.00;;;2.70;;
31378;SDS011;61664;48.112;11.662;2023-02-01T08:00:51;2.22;;;2.03;;
31378;SDS011;61664;48.112;11.662;2023-02-01T08:03:37;2.47;;;2.28;;
31378;SDS011;61664;48.112;11.662;2023-02-01T08:06:05;4.05;;;2.40;;
31378;SDS011;61664;48.112;11.662;2023-02-01T08:08:32;2.38;;;2.17;;
31378;SDS011;61664;48.112;11.662;2023-02-01T08:11:00;1.80;;;1.70;;
31378;SDS011;61664;48.112;11.662;2023-02-01T08:13:31;2.30;;;2.10;;
31378;SDS011;61664;48.112;11.662;2023-02-01T08:15:59;2.30;;;2.10;;
31378;SDS011;61664;48.112;11.662;2023-02-01T08:18:32;2.13;;;2.03;;
31378;SDS011;61664;48.112;11.662;2023-02-01T08:21:08;3.35;;;1.85;;
31378;SDS011;61664;48.112;11.662;2023-02-01T08:23:50;2.08;;;1.98;;
31378;SDS011;61664;48.112;11.662;2023-02-01T08:26:18;2.17;;;2.08;;
31378;SDS011;61664;48.112;11.662;2023-02-01T08:28:50;2.75;;;2.55;;
31378;SDS011;61664;48.112;11.662;2023-02-01T08:31:22;3.03;;;2.83;;
31378;SDS011;61664;48.112;11.662;2023-02-01T08:33:55;2.15;;;1.95;;
31378;SDS011;61664;48.112;11.662;2023-02-01T08:36:27;1.83;;;1.73;;
31378;SDS011;61664;48.112;11.662;2023-02-01T08:38:56;2.08;;;1.98;;
31378;SDS011;61664;48.112;11.662;2023-02-01T08:41:25;2.22;;;2.08;;
31378;SDS011;61664;48.112;11.662;2023-02-01T08:43:55;2.75;;;2.47;;
31378;SDS011;61664;48.112;11.662;2023-02-01T08:46:23;2.40;;;2.08;;
31378;SDS011;61664;48.112;11.662;2023-02-01T08:48:50;2.65;;;2.20;;
31378;SDS011;61664;48.112;11.662;2023-02-01T08:51:19;2.63;;;2.17;;
31378;SDS011;61664;48.112;11.662;2023-02-01T08:53:48;2.10;;;2.00;;
31378;SDS011;61664;48.112;11.662;2023-02-01T08:56:16;2.60;;;2.40;;
31378;SDS011;61664;48.112;11.662;2023-02-01T08:58:45;2.92;;;2.72;;
31378;SDS011;61664;48.112;11.662;2023-02-01T09:01:13;3.25;;;2.40;;
31378;SDS011;61664;48.112;11.662;2023-02-01T09:03:43;2.47;;;2.20;;
31378;SDS011;61664;48.112;11.662;2023-02-01T09:06:11;3.63;;;2.72;;
31378;SDS011;61664;48.112;11.662;2023-02-01T09:08:41;2.17;;;2.08;;
31378;SDS011;61664;48.112;11.662;2023-02-01T09:11:16;2.55;;;2.35;;
31378;SDS011;61664;48.112;11.662;2023-02-01T09:13:47;3.17;;;2.92;;
31378;SDS011;61664;48.112;11.662;2023-02-01T09:16:15;2.65;;;2.45;;
31378;SDS011;61664;48.112;11.662;2023-02-01T09:18:42;2.30;;;2.08;;
31378;SDS011;61664;48.112;11.662;2023-02-01T09:21:26;2.60;;;2.40;;
31378;SDS011;61664;48.112;11.662;2023-02-01T09:23:54;2.72;;;2.40;;
31378;SDS011;61664;48.112;11.662;2023-02-01T09:26:21;2.45;;;2.20;;
31378;SDS011;61664;48.112;11.662;2023-02-01T09:28:57;3.25;;;2.97;;
31378;SDS011;61664;48.112;11.662;2023-02-01T09:31:25;3.25;;;3.05;;
31378;SDS011;61664;48.112;11.662;2023-02-01T09:33:52;3.00;;;2.80;;
31378;SDS011;61664;48.112;11.662;2023-02-01T09:36:19;3.63;;;2.80;;
31378;SDS011;61664;48.112;11.662;2023-02-01T09:38:46;3.22;;;2.80;;
31378;SDS011;61664;48.112;11.662;2023-02-01T09:46:55;2.50;;;2.22;;
31378;SDS011;61664;48.112;11.662;2023-02-01T09:49:24;2.55;;;2.35;;
31378;SDS011;61664;48.112;11.662;2023-02-01T09:52:00;2.55;;;2.35;;
31378;SDS011;61664;48.112;11.662;2023-02-01T09:54:44;2.30;;;2.00;;
31378;SDS011;61664;48.112;11.662;2023-02-01T09:57:24;2.20;;;2.00;;
31378;SDS011;61664;48.112;11.662;2023-02-01T10:00:04;2.30;;;2.05;;
31378;SDS011;61664;48.112;11.662;2023-02-01T10:02:42;2.30;;;2.08;;
31378;SDS011;61664;48.112;11.662;2023-02-01T10:05:14;2.20;;;2.00;;
31378;SDS011;61664;48.112;11.662;2023-02-01T10:10:52;2.53;;;2.33;;
31378;SDS011;61664;48.112;11.662;2023-02-01T10:13:47;2.17;;;1.98;;
31378;SDS011;61664;48.112;11.662;2023-02-01T10:16:46;2.50;;;2.28;;
31378;SDS011;61664;48.112;11.662;2023-02-01T10:26:20;3.22;;;3.03;;
31378;SDS011;61664;48.112;11.662;2023-02-01T10:28:55;3.60;;;3.30;;
31378;SDS011;61664;48.112;11.662;2023-02-01T10:31:31;2.90;;;2.70;;
31378;SDS011;61664;48.112;11.662;2023-02-01T10:34:11;2.92;;;2.60;;
31378;SDS011;61664;48.112;11.662;2023-02-01T10:39:27;2.03;;;1.90;;
31378;SDS011;61664;48.112;11.662;2023-02-01T10:41:54;3.55;;;2.78;;
31378;SDS011;61664;48.112;11.662;2023-02-01T10:44:26;2.10;;;1.90;;
31378;SDS011;61664;48.112;11.662;2023-02-01T10:46:58;2.50;;;2.30;;
31378;SDS011;61664;48.112;11.662;2023-02-01T10:49:38;2.35;;;2.15;;
31378;SDS011;61664;48.112;11.662;2023-02-01T10:52:29;2.10;;;1.90;;
31378;SDS011;61664;48.112;11.662;2023-02-01T10:58:10;2.42;;;2.22;;
31378;SDS011;61664;48.112;11.662;2023-02-01T11:00:45;2.00;;;1.90;;
31378;SDS011;61664;48.112;11.662;2023-02-01T11:08:58;1.75;;;1.65;;
31378;SDS011;61664;48.112;11.662;2023-02-01T11:11:52;2.72;;;2.40;;
31378;SDS011;61664;48.112;11.662;2023-02-01T11:16:54;7.40;;;2.70;;
31378;SDS011;61664;48.112;11.662;2023-02-01T11:19:26;8.75;;;6.63;;
31378;SDS011;61664;48.112;11.662;2023-02-01T11:21:55;14.77;;;8.05;;
31378;SDS011;61664;48.112;11.662;2023-02-01T11:24:34;6.75;;;3.90;;
31378;SDS011;61664;48.112;11.662;2023-02-01T11:27:05;3.95;;;3.03;;
31378;SDS011;61664;48.112;11.662;2023-02-01T11:29:53;3.15;;;2.92;;
31378;SDS011;61664;48.112;11.662;2023-02-01T11:32:27;4.00;;;2.83;;
31378;SDS011;61664;48.112;11.662;2023-02-01T11:35:04;3.78;;;3.47;;
31378;SDS011;61664;48.112;11.662;2023-02-01T11:37:39;2.88;;;2.63;;
31378;SDS011;61664;48.112;11.662;2023-02-01T11:45:28;3.00;;;2.58;;
31378;SDS011;61664;48.112;11.662;2023-02-01T11:48:13;2.75;;;2.22;;
31378;SDS011;61664;48.112;11.662;2023-02-01T11:53:40;2.70;;;2.50;;
31378;SDS011;61664;48.112;11.662;2023-02-01T11:56:49;2.65;;;2.45;;
31378;SDS011;61664;48.112;11.662;2023-02-01T12:02:37;3.08;;;2.75;;
31378;SDS011;61664;48.112;11.662;2023-02-01T12:05:25;3.67;;;3.38;;
31378;SDS011;61664;48.112;11.662;2023-02-01T12:08:05;3.63;;;2.67;;
31378;SDS011;61664;48.112;11.662;2023-02-01T12:26:38;3.55;;;2.83;;
31378;SDS011;61664;48.112;11.662;2023-02-01T12:32:51;4.80;;;3.30;;
31378;SDS011;61664;48.112;11.662;2023-02-01T12:35:44;4.55;;;3.10;;
31378;SDS011;61664;48.112;11.662;2023-02-01T12:38:21;2.75;;;2.55;;
31378;SDS011;61664;48.112;11.662;2023-02-01T12:46:47;3.25;;;2.95;;
31378;SDS011;61664;48.112;11.662;2023-02-01T12:49:28;3.35;;;3.00;;
31378;SDS011;61664;48.112;11.662;2023-02-01T12:52:12;2.70;;;2.40;;
31378;SDS011;61664;48.112;11.662;2023-02-01T12:57:35;2.72;;;2.50;;
31378;SDS011;61664;48.112;11.662;2023-02-01T13:00:22;3.20;;;2.92;;
31378;SDS011;61664;48.112;11.662;2023-02-01T13:03:00;4.45;;;3.30;;
31378;SDS011;61664;48.112;11.662;2023-02-01T13:09:16;3.50;;;2.88;;
31378;SDS011;61664;48.112;11.662;2023-02-01T13:12:13;7.88;;;3.45;;
31378;SDS011;61664;48.112;11.662;2023-02-01T13:14:48;5.63;;;2.80;;
31378;SDS011;61664;48.112;11.662;2023-02-01T13:17:23;4.50;;;3.13;;
31378;SDS011;61664;48.112;11.662;2023-02-01T13:22:40;3.20;;;2.92;;
31378;SDS011;61664;48.112;11.662;2023-02-01T13:25:26;3.58;;;2.65;;
31378;SDS011;61664;48.112;11.662;2023-02-01T13:28:16;3.13;;;2.92;;
31378;SDS011;61664;48.112;11.662;2023-02-01T13:39:49;3.85;;;3.45;;
31378;SDS011;61664;48.112;11.662;2023-02-01T13:42:30;3.53;;;3.22;;
31378;SDS011;61664;48.112;11.662;2023-02-01T13:45:16;3.65;;;3.33;;
31378;SDS011;61664;48.112;11.662;2023-02-01T13:47:51;4.50;;;4.10;;
31378;SDS011;61664;48.112;11.662;2023-02-01T13:50:37;4.68;;;3.47;;
31378;SDS011;61664;48.112;11.662;2023-02-01T13:55:40;5.13;;;3.22;;
31378;SDS011;61664;48.112;11.662;2023-02-01T13:58:20;3.38;;;2.80;;
31378;SDS011;61664;48.112;11.662;2023-02-01T14:03:53;3.58;;;2.78;;
31378;SDS011;61664;48.112;11.662;2023-02-01T14:19:23;4.77;;;2.40;;
31378;SDS011;61664;48.112;11.662;2023-02-01T14:26:59;3.03;;;2.72;;
31378;SDS011;61664;48.112;11.662;2023-02-01T14:29:56;2.50;;;2.30;;
31378;SDS011;61664;48.112;11.662;2023-02-01T14:32:34;2.92;;;2.63;;
31378;SDS011;61664;48.112;11.662;2023-02-01T14:35:47;2.78;;;2.58;;
31378;SDS011;61664;48.112;11.662;2023-02-01T14:37:58;3.78;;;2.25;;
31378;SDS011;61664;48.112;11.662;2023-02-01T14:40:30;6.07;;;2.58;;
31378;SDS011;61664;48.112;11.662;2023-02-01T14:42:58;2.83;;;2.58;;
31378;SDS011;61664;48.112;11.662;2023-02-01T14:50:31;2.47;;;2.28;;
31378;SDS011;61664;48.112;11.662;2023-02-01T14:58:42;4.18;;;2.28;;
31378;SDS011;61664;48.112;11.662;2023-02-01T15:01:36;2.55;;;2.17;;
31378;SDS011;61664;48.112;11.662;2023-02-01T15:04:13;2.47;;;2.25;;
31378;SDS011;61664;48.112;11.662;2023-02-01T15:06:48;2.17;;;2.03;;
31378;SDS011;61664;48.112;11.662;2023-02-01T15:09:31;2.72;;;1.88;;
31378;SDS011;61664;48.112;11.662;2023-02-01T15:14:39;3.28;;;2.45;;
31378;SDS011;61664;48.112;11.662;2023-02-01T15:17:19;4.70;;;2.75;;
31378;SDS011;61664;48.112;11.662;2023-02-01T15:20:17;2.63;;;2.03;;
31378;SDS011;61664;48.112;11.662;2023-02-01T15:27:56;2.80;;;1.95;;
31378;SDS011;61664;48.112;11.662;2023-02-01T15:30:25;2.78;;;2.33;;
31378;SDS011;61664;48.112;11.662;2023-02-01T15:33:16;3.22;;;2.05;;
31378;SDS011;61664;48.112;11.662;2023-02-01T15:35:49;3.47;;;1.77;;
31378;SDS011;61664;48.112;11.662;2023-02-01T15:38:40;4.70;;;2.33;;
31378;SDS011;61664;48.112;11.662;2023-02-01T15:41:16;3.85;;;1.77;;
31378;SDS011;61664;48.112;11.662;2023-02-01T15:44:03;5.07;;;2.60;;
31378;SDS011;61664;48.112;11.662;2023-02-01T15:46:46;6.70;;;2.72;;
31378;SDS011;61664;48.112;11.662;2023-02-01T15:51:52;3.35;;;2.50;;
31378;SDS011;61664;48.112;11.662;2023-02-01T15:54:28;3.00;;;2.20;;
31378;SDS011;61664;48.112;11.662;2023-02-01T15:57:12;2.97;;;2.15;;
31378;SDS011;61664;48.112;11.662;2023-02-01T16:00:00;6.13;;;2.97;;
31378;SDS011;61664;48.112;11.662;2023-02-01T16:02:35;4.82;;;2.03;;
31378;SDS011;61664;48.112;11.662;2023-02-01T16:10:31;3.92;;;2.30;;
31378;SDS011;61664;48.112;11.662;2023-02-01T16:13:07;3.72;;;2.00;;
31378;SDS011;61664;48.112;11.662;2023-02-01T16:15:35;2.95;;;2.15;;
31378;SDS011;61664;48.112;11.662;2023-02-01T16:18:03;4.85;;;1.70;;
31378;SDS011;61664;48.112;11.662;2023-02-01T16:20:30;3.28;;;1.80;;
31378;SDS011;61664;48.112;11.662;2023-02-01T16:22:59;5.53;;;2.67;;
31378;SDS011;61664;48.112;11.662;2023-02-01T16:25:25;3.80;;;2.40;;
31378;SDS011;61664;48.112;11.662;2023-02-01T16:27:53;2.35;;;1.83;;
31378;SDS011;61664;48.112;11.662;2023-02-01T16:30:20;4.03;;;2.50;;
31378;SDS011;61664;48.112;11.662;2023-02-01T16:32:58;4.32;;;2.67;;
31378;SDS011;61664;48.112;11.662;2023-02-01T16:35:29;3.20;;;2.08;;
31378;SDS011;61664;48.112;11.662;2023-02-01T16:38:04;4.72;;;2.30;;
31378;SDS011;61664;48.112;11.662;2023-02-01T16:40:42;4.15;;;2.95;;
31378;SDS011;61664;48.112;11.662;2023-02-01T16:45:45;7.65;;;4.78;;
31378;SDS011;61664;48.112;11.662;2023-02-01T16:48:28;4.43;;;2.80;;
31378;SDS011;61664;48.112;11.662;2023-02-01T16:51:01;9.35;;;3.03;;
31378;SDS011;61664;48.112;11.662;2023-02-01T16:53:34;3.15;;;2.70;;
31378;SDS011;61664;48.112;11.662;2023-02-01T16:56:19;3.05;;;2.47;;
31378;SDS011;61664;48.112;11.662;2023-02-01T16:58:49;4.15;;;2.75;;
31378;SDS011;61664;48.112;11.662;2023-02-01T17:01:17;3.00;;;2.42;;
31378;SDS011;61664;48.112;11.662;2023-02-01T17:03:45;2.58;;;2.38;;
31378;SDS011;61664;48.112;11.662;2023-02-01T17:06:14;6.88;;;3.13;;
31378;SDS011;61664;48.112;11.662;2023-02-01T17:08:51;3.42;;;3.05;;
31378;SDS011;61664;48.112;11.662;2023-02-01T17:11:21;3.75;;;3.40;;
31378;SDS011;61664;48.112;11.662;2023-02-01T17:13:48;2.80;;;2.35;;
31378;SDS011;61664;48.112;11.662;2023-02-01T17:18:57;3.22;;;2.35;;
31378;SDS011;61664;48.112;11.662;2023-02-01T17:21:29;3.10;;;1.73;;
31378;SDS011;61664;48.112;11.662;2023-02-01T17:24:08;8.05;;;3.53;;
31378;SDS011;61664;48.112;11.662;2023-02-01T17:26:40;3.70;;;2.10;;
31378;SDS011;61664;48.112;11.662;2023-02-01T17:29:09;3.60;;;2.17;;
31378;SDS011;61664;48.112;11.662;2023-02-01T17:31:41;7.95;;;2.55;;
31378;SDS011;61664;48.112;11.662;2023-02-01T17:34:12;6.20;;;2.38;;
31378;SDS011;61664;48.112;11.662;2023-02-01T17:36:42;9.88;;;2.42;;
31378;SDS011;61664;48.112;11.662;2023-02-01T17:39:10;4.75;;;2.33;;
31378;SDS011;61664;48.112;11.662;2023-02-01T17:42:01;6.80;;;2.42;;
31378;SDS011;61664;48.112;11.662;2023-02-01T17:44:30;4.05;;;1.77;;
31378;SDS011;61664;48.112;11.662;2023-02-01T17:46:57;3.95;;;1.63;;
31378;SDS011;61664;48.112;11.662;2023-02-01T17:49:25;3.15;;;2.35;;
31378;SDS011;61664;48.112;11.662;2023-02-01T17:51:54;2.83;;;1.95;;
31378;SDS011;61664;48.112;11.662;2023-02-01T17:54:22;5.28;;;2.58;;
31378;SDS011;61664;48.112;11.662;2023-02-01T17:56:51;7.05;;;2.70;;
31378;SDS011;61664;48.112;11.662;2023-02-01T17:59:18;8.15;;;2.90;;
31378;SDS011;61664;48.112;11.662;2023-02-01T18:01:45;6.32;;;2.58;;
31378;SDS011;61664;48.112;11.662;2023-02-01T18:04:12;5.43;;;2.33;;
31378;SDS011;61664;48.112;11.662;2023-02-01T18:06:44;1.90;;;1.70;;
31378;SDS011;61664;48.112;11.662;2023-02-01T18:09:11;5.93;;;2.90;;
31378;SDS011;61664;48.112;11.662;2023-02-01T18:11:38;6.18;;;2.60;;
31378;SDS011;61664;48.112;11.662;2023-02-01T18:14:05;3.60;;;2.15;;
31378;SDS011;61664;48.112;11.662;2023-02-01T18:16:32;6.13;;;2.83;;
31378;SDS011;61664;48.112;11.662;2023-02-01T18:19:01;2.67;;;1.90;;
31378;SDS011;61664;48.112;11.662;2023-02-01T18:21:32;4.75;;;1.60;;
31378;SDS011;61664;48.112;11.662;2023-02-01T18:24:03;6.60;;;2.25;;
31378;SDS011;61664;48.112;11.662;2023-02-01T18:26:30;4.57;;;2.03;;
31378;SDS011;61664;48.112;11.662;2023-02-01T18:28:57;3.97;;;1.95;;